Metar Cercanos

 

LEPA - Palma De Mallorc, Spain
Distance from station: ONO 38km
Actualización: 23/02/2018 23:00
Few Clouds
Few Clouds
 Viento del calm
Viento: Calma
Temperatura: 3°C
Rocío: 2°C
Humedad: 93%
Barómetro: 1008 hPa
Clouds: Few Clouds
Visibility: 10 km
Cloud details: Few Clouds 762 m
2018/02/23 22:00 LEPA 232200Z 00000KT 9999 FEW025 03/02 Q1008 NOSIG
LEMH - Mahon/Menorca Is, Spain
Distance from station: ENE 105km
Actualización: 23/02/2018 23:00
Parcialmente nuboso
Parcialmente nuboso
 Viento del N
Viento: N 6 km/h
Temperatura: 5°C
Rocío: 2°C
Humedad: 81%
Barómetro: 1007 hPa
Clouds: Parcialmente nuboso
Visibility: 10 km
Cloud details: Parcialmente nuboso 1311 m
2018/02/23 22:00 LEMH 232200Z AUTO 35003KT 9999 SCT043 05/02 Q1007
 
LEIB - Ibiza/Es Codola, Spain
Distance from station: OSO 165km
Actualización: 23/02/2018 23:00
Few Clouds
Few Clouds
 Viento del NNO
Viento: NNO 6 km/h
Temperatura: 5°C
Rocío: 3°C
Humedad: 87%
Barómetro: 1007 hPa
Clouds: Few Clouds
Visibility: 10 km
Cloud details: Few Clouds 610 m
2018/02/23 22:00 LEIB 232200Z 33003KT 250V010 9999 FEW020 05/03 Q1007 NOSIG
LEBL - Barcelona Airpor, Spain
Distance from station: NNO 225km
Actualización: 23/02/2018 23:00
Few Clouds
Few Clouds
 Viento del NNO
Viento: NNO 13 km/h
Temperatura: 5°C
Sensación frio: 2°C
Rocío: 1°C
Humedad: 76%
Barómetro: 1008 hPa
Clouds: Few Clouds
Visibility: 10 km
Cloud details: Few Clouds 610 m
2018/02/23 22:00 LEBL 232200Z 33007KT 280V010 9999 FEW020 05/01 Q1008 NOSIG
 
LEVC - Valencia (civ/Mi, Spain
Distance from station: NO 188km
Actualización: 23/02/2018 23:00
Few Clouds
Few Clouds
 Viento del NO
Viento: NO 9 km/h
Temperatura: 5°C
Sensación frio: 3°C
Rocío: 1°C
Humedad: 76%
Barómetro: 1007 hPa
Clouds: Few Clouds
Visibility: 10 km
Cloud details: Few Clouds 914 m
2018/02/23 22:00 LEVC 232200Z 32005KT 9999 FEW030 05/01 Q1007 NOSIG
LEGE - Gerona/Costa Bra, Spain
Distance from station: N 276km
Actualización: 23/02/2018 23:00
Mist, Few clouds
Mist, Few clouds
 Viento del calm
Viento: Calma
Temperatura: 1°C
Rocío: 1°C
Humedad: 100%
Barómetro: 1007 hPa
Resumen: Mist
Clouds: Few Clouds
Visibility: 5 km
Cloud details: Few Clouds 610 m
2018/02/23 22:00 LEGE 232200Z 00000KT 5000 BR FEW020 01/01 Q1007
 
LEAL - Alicante/El Alte, Spain
Distance from station: OSO 344km
Actualización: 23/02/2018 23:00
Few Clouds
Few Clouds
 Viento del NO
Viento: NO 7 km/h
Temperatura: 7°C
Sensación frio: 6°C
Rocío: 3°C
Humedad: 76%
Barómetro: 1007 hPa
Clouds: Few Clouds
Visibility: 10 km
Cloud details: Few Clouds 1067 m
2018/02/23 22:00 LEAL 232200Z 31004KT 9999 FEW035 07/03 Q1007 NOSIG
LEAM - Almeria Airport, Spain
Distance from station: SSO 56km
Actualización: 23/02/2018 23:00
Despejado
Despejado
 Viento del ENE
Viento: ENE 13 km/h
Temperatura: 10°C
Sensación frio: 8°C
Rocío: 4°C
Humedad: 67%
Barómetro: 1006 hPa
Clouds: Despejado
Visibility: 10 km
2018/02/23 22:00 LEAM 232200Z AUTO 07007KT 9999 NCD 10/04 Q1006
 
LEZG - Zaragoza (mil/Ci, Spain
Distance from station: NO 431km
Actualización: 23/02/2018 23:00
Despejado
Despejado
 Viento del O
Viento: O 13 km/h
Temperatura: 2°C
Sensación frio: -1°C
Rocío: -2°C
Humedad: 75%
Barómetro: 1008 hPa
Resumen: Despejado
Visibility: greater than 10 km
2018/02/23 22:00 LEZG 232200Z 26007KT CAVOK 02/M02 Q1008
LEMD - Madrid/Barajas, Spain
Distance from station: ONO 234km
Actualización: 23/02/2018 23:00
Despejado
Despejado
 Viento del varies
Viento: varies 4 km/h
Temperatura: 1°C
Rocío: -9°C
Humedad: 48%
Barómetro: 1005 hPa
Resumen: Despejado
Visibility: greater than 10 km
2018/02/23 22:00 LEMD 232200Z VRB02KT CAVOK 01/M09 Q1005 NOSIG
 
LEGR - Granada Airport, Spain
Distance from station: OSO 62km
Actualización: 23/02/2018 23:00
Despejado
Despejado
 Viento del calm
Viento: Calma
Temperatura: 4°C
Rocío: 0°C
Humedad: 75%
Barómetro: 1004 hPa
Resumen: Despejado
Visibility: greater than 10 km
2018/02/23 22:00 LEGR 232200Z 00000KT CAVOK 04/M00 Q1004
LEMG - Malaga (civ/Mil), Spain
Distance from station: OSO 227km
Actualización: 23/02/2018 23:00
Muy nuboso
Muy nuboso
 Viento del E
Viento: E 19 km/h
Temperatura: 13°C
Rocío: 6°C
Humedad: 63%
Barómetro: 1005 hPa
Clouds: Muy nuboso
Visibility: 10 km
Cloud details: Few Clouds 610 m
Parcialmente nuboso 1067 m
Muy nuboso 1372 m
2018/02/23 22:00 LEMG 232200Z 09010KT 9999 FEW020 SCT035 BKN045 13/06 Q1005 NOSIG
 
LEZL - Sevilla (civ/Mil, Spain
Distance from station: S 318km
Actualización: 23/02/2018 23:00
Despejado
Despejado
 Viento del varies
Viento: varies 2 km/h
Temperatura: 8°C
Rocío: -4°C
Humedad: 43%
Barómetro: 1004 hPa
Resumen: Despejado
Visibility: greater than 10 km
2018/02/23 22:00 LEZL 232200Z VRB01KT CAVOK 08/M04 Q1004 NOSIG
LEVT - Vitoria, Spain
Distance from station: NO 226km
Actualización: 23/02/2018 23:00
Muy nuboso
Muy nuboso
 Viento del NE
Viento: NE 9 km/h
Temperatura: 1°C
Sensación frio: -2°C
Rocío: -2°C
Humedad: 81%
Barómetro: 1007 hPa
Clouds: Muy nuboso
Visibility: 10 km
Cloud details: Muy nuboso 671 m
2018/02/23 22:00 LEVT 232200Z 04005KT 9999 BKN022 01/M02 Q1007
 
LEBB - Bilbao/Sondica, Spain
Distance from station: NNO 235km
Actualización: 23/02/2018 23:00
Muy nuboso
Muy nuboso
 Viento del varies
Viento: varies 2 km/h
Temperatura: 5°C
Rocío: 2°C
Humedad: 81%
Barómetro: 1009 hPa
Clouds: Muy nuboso
Visibility: 10 km
Cloud details: Muy nuboso 1158 m
2018/02/23 22:00 LEBB 232200Z VRB01KT 9999 BKN038 05/02 Q1009 NOSIG
LESO - San Sebastian/Fu, Spain
Distance from station: N 231km
Actualización: 23/02/2018 23:00
Cubierto
Cubierto
 Viento del SE
Viento: SE 4 km/h
Temperatura: 5°C
Rocío: -1°C
Humedad: 66%
Barómetro: 1009 hPa
Clouds: Cubierto
Visibility: 10 km
Cloud details: Cubierto 1128 m
2018/02/23 22:00 LESO 232200Z AUTO 14002KT 9999 OVC037/// 05/M01 Q1009
 
LEVD - Valladolid(Mil/C, Spain
Distance from station: ONO 239km
Actualización: 23/02/2018 22:00
Despejado
Despejado
 Viento del N
Viento: N 9 km/h
Temperatura: -2°C
Sensación frio: -6°C
Rocío: -10°C
Humedad: 55%
Barómetro: 1005 hPa
Resumen: Despejado
Visibility: greater than 10 km
2018/02/23 21:00 LEVD 232100Z 35005KT CAVOK M02/M10 Q1005
LESA - Salamanca (civ/M, Spain
Distance from station: ONO 349km
Actualización: 23/02/2018 19:00
NOT Current
Despejado
Despejado
 Viento del ENE
Viento: ENE 11 km/h
Temperatura: 5°C
Sensación frio: 2°C
Rocío: -11°C
Humedad: 31%
Barómetro: 1004 hPa
Resumen: Despejado
Visibility: greater than 10 km
2018/02/23 18:00 LESA 231800Z 06006KT CAVOK 05/M11 Q1004
 
LEXJ - Santander/Paraya, Spain
Distance from station: NNO 247km
Actualización: 23/02/2018 23:00
Parcialmente nuboso
Parcialmente nuboso
 Viento del ESE
Viento: ESE 9 km/h
Temperatura: 4°C
Sensación frio: 2°C
Rocío: 2°C
Humedad: 87%
Barómetro: 1009 hPa
Clouds: Parcialmente nuboso
Visibility: 10 km
Cloud details: Parcialmente nuboso 1036 m
2018/02/23 22:00 LEXJ 232200Z 12005KT 9999 SCT034 04/02 Q1009
LEAS - Asturias/Aviles, Spain
Distance from station: NO 214km
Actualización: 23/02/2018 23:00
Despejado
Despejado
 Viento del SE
Viento: SE 6 km/h
Temperatura: 4°C
Rocío: 1°C
Humedad: 81%
Barómetro: 1007 hPa
Resumen: Despejado
Visibility: greater than 10 km
2018/02/23 22:00 LEAS 232200Z 13003KT 080V160 CAVOK 04/01 Q1007 NOSIG
 
LECO - La Coruna/Alvedr, Spain
Distance from station: ONO 222km
Actualización: 23/02/2018 23:00
Despejado
Despejado
 Viento del S
Viento: S 9 km/h
Temperatura: 5°C
Sensación frio: 3°C
Rocío: 3°C
Humedad: 87%
Barómetro: 1006 hPa
Resumen: Despejado
Visibility: greater than 10 km
2018/02/23 22:00 LECO 232200Z 17005KT CAVOK 05/03 Q1006 NOSIG
LEVX - Vigo/Peinador, Spain
Distance from station: O 214km
Actualización: 23/02/2018 23:00
Despejado
Despejado
 Viento del NO
Viento: NO 7 km/h
Temperatura: 5°C
Sensación frio: 3°C
Rocío: 0°C
Humedad: 70%
Barómetro: 1005 hPa
Resumen: Despejado
Visibility: greater than 10 km
2018/02/23 22:00 LEVX 232200Z 32004KT 300V360 CAVOK 05/00 Q1005 NOSIG